Terminal Aerodrome Forecast
Issued by NWS

Home | Current Version | Previous Version | Text Only | Print | Product List | Glossary Off
Versions: 1 2 3 4 5 6 7 8 9 10 11 12 13 14 15

000
FTUS43 KIWX 011120
TAFSBN
TAF
KSBN 011120Z 0112/0212 26004KT P6SM SCT080
     FM011500 29011KT P6SM SCT090
     FM020200 21004KT P6SM VCTS BKN060CB
     FM020600 20005KT P6SM BKN120=

USA.gov is the U.S. government's official web portal to all federal, state and local government web resources and services.